This demonstration page uses our WeatherBlox Daily Observations layout. Learn more.

38.89511, -77.03637

Hourly Observations for September 15, 2015

Temp ( °F °C ) Dew Point ( °F °C ) Humidity (%) Winds ( mph kmh ) Pressure ( in mb ) Visibility ( mi km ) Precip ( " mm )
12:52 am 00:52 Clear 64 18 52 11 64 64 SSW 5 7 30.27 1025 10 16.09344 0 0
1:52 am 01:52 Clear 63 17 52 11 68 68 Calm 30.27 1025 10 16.09344 0 0
2:52 am 02:52 Clear 61 16 54 12 77 77 SW 3 6 30.3 1026 10 16.09344 0 0
3:52 am 03:52 Clear 63 17 52 11 68 68 Calm 30.3 1026 10 16.09344 0 0
4:52 am 04:52 Clear 61 16 54 12 77 77 N 6 9 30.3 1026 10 16.09344 0 0
5:52 am 05:52 Clear 61 16 52 11 72 72 NNW 7 11 30.33 1027 10 16.09344 0 0
6:52 am 06:52 Partly Cloudy 61 16 50 10 68 68 WSW 6 9 30.33 1027 10 16.09344 0 0
7:52 am 07:52 Partly Cloudy 64 18 54 12 68 68 N 3 6 30.36 1028 10 16.09344 0 0
8:52 am 08:52 Partly Cloudy 68 20 52 11 56 56 N 7 11 30.36 1028 10 16.09344 0 0
9:52 am 09:52 Mostly Cloudy 72 22 54 12 53 53 N 5 7 30.39 1029 10 16.09344 0 0
10:52 am 10:52 Mostly Cloudy 77 25 54 12 44 44 N 6 9 30.39 1029 10 16.09344 0 0
11:52 am 11:52 Mostly Cloudy 79 26 50 10 37 37 NE 5 7 30.39 1029 10 16.09344 0 0
12:52 pm 12:52 Mostly Cloudy 81 27 50 10 34 34 Calm 30.36 1028 10 16.09344 0 0
1:52 pm 13:52 Partly Cloudy 82 28 48 9 30 30 NE 3 6 30.36 1028 10 16.09344 0 0
2:52 pm 14:52 Partly Cloudy 82 28 50 10 32 32 E 5 7 30.33 1027 10 16.09344 0 0
3:52 pm 15:52 Mostly Sunny 84 29 48 9 29 29 Calm 30.33 1027 10 16.09344 0 0
4:52 pm 16:52 Mostly Cloudy 82 28 52 11 35 35 SSE 6 9 30.3 1026 10 16.09344 0 0
5:52 pm 17:52 Mostly Cloudy 82 28 52 11 35 35 S 7 11 30.3 1026 10 16.09344 0 0
6:52 pm 18:52 Mostly Cloudy 81 27 52 11 37 37 SW 8 13 30.3 1026 10 16.09344 0 0
7:52 pm 19:52 Partly Cloudy 77 25 52 11 42 42 W 6 9 30.3 1026 10 16.09344 0 0
8:52 pm 20:52 Partly Cloudy 75 24 57 14 54 54 SE 3 6 30.33 1027 10 16.09344 0 0
9:52 pm 21:52 Clear 73 23 57 14 57 57 Calm 30.33 1027 10 16.09344 0 0
10:52 pm 22:52 Partly Cloudy 70 21 61 16 73 73 Calm 30.33 1027 10 16.09344 0 0
11:52 pm 23:52 Partly Cloudy 70 21 57 14 64 64 SSW 3 6 30.36 1028 10 16.09344 0 0

Powered by AerisWeather